sensor_id;sensor_type;location;lat;lon;timestamp;P1;durP1;ratioP1;P2;durP2;ratioP2
9481;SDS011;4779;48.062;11.672;2023-08-17T00:00:53;5.13;;;4.45;;
9481;SDS011;4779;48.062;11.672;2023-08-17T00:03:20;5.30;;;4.85;;
9481;SDS011;4779;48.062;11.672;2023-08-17T00:05:47;5.20;;;4.80;;
9481;SDS011;4779;48.062;11.672;2023-08-17T00:08:14;5.50;;;5.05;;
9481;SDS011;4779;48.062;11.672;2023-08-17T00:10:42;5.20;;;4.70;;
9481;SDS011;4779;48.062;11.672;2023-08-17T00:13:09;5.50;;;4.57;;
9481;SDS011;4779;48.062;11.672;2023-08-17T00:15:37;5.15;;;4.65;;
9481;SDS011;4779;48.062;11.672;2023-08-17T00:18:04;5.82;;;5.00;;
9481;SDS011;4779;48.062;11.672;2023-08-17T00:20:30;5.28;;;4.75;;
9481;SDS011;4779;48.062;11.672;2023-08-17T00:22:58;5.10;;;4.65;;
9481;SDS011;4779;48.062;11.672;2023-08-17T00:25:24;5.10;;;4.60;;
9481;SDS011;4779;48.062;11.672;2023-08-17T00:27:52;4.75;;;4.35;;
9481;SDS011;4779;48.062;11.672;2023-08-17T00:30:19;5.40;;;4.90;;
9481;SDS011;4779;48.062;11.672;2023-08-17T00:32:46;5.68;;;5.10;;
9481;SDS011;4779;48.062;11.672;2023-08-17T00:35:13;5.03;;;4.43;;
9481;SDS011;4779;48.062;11.672;2023-08-17T00:37:40;5.53;;;5.03;;
9481;SDS011;4779;48.062;11.672;2023-08-17T00:40:07;5.38;;;4.88;;
9481;SDS011;4779;48.062;11.672;2023-08-17T00:42:35;6.05;;;5.45;;
9481;SDS011;4779;48.062;11.672;2023-08-17T00:45:03;5.65;;;5.03;;
9481;SDS011;4779;48.062;11.672;2023-08-17T00:47:31;5.88;;;5.00;;
9481;SDS011;4779;48.062;11.672;2023-08-17T00:49:58;5.40;;;4.90;;
9481;SDS011;4779;48.062;11.672;2023-08-17T00:52:26;5.13;;;4.65;;
9481;SDS011;4779;48.062;11.672;2023-08-17T00:54:52;5.65;;;4.60;;
9481;SDS011;4779;48.062;11.672;2023-08-17T00:57:21;4.78;;;4.40;;
9481;SDS011;4779;48.062;11.672;2023-08-17T00:59:49;4.97;;;4.53;;
9481;SDS011;4779;48.062;11.672;2023-08-17T01:02:18;5.70;;;4.68;;
9481;SDS011;4779;48.062;11.672;2023-08-17T01:04:45;5.47;;;4.88;;
9481;SDS011;4779;48.062;11.672;2023-08-17T01:07:12;5.53;;;4.97;;
9481;SDS011;4779;48.062;11.672;2023-08-17T01:09:39;4.95;;;4.55;;
9481;SDS011;4779;48.062;11.672;2023-08-17T01:12:08;6.63;;;5.22;;
9481;SDS011;4779;48.062;11.672;2023-08-17T01:14:45;5.72;;;4.82;;
9481;SDS011;4779;48.062;11.672;2023-08-17T01:17:19;5.03;;;4.57;;
9481;SDS011;4779;48.062;11.672;2023-08-17T01:19:51;4.78;;;4.28;;
9481;SDS011;4779;48.062;11.672;2023-08-17T01:22:21;5.15;;;4.75;;
9481;SDS011;4779;48.062;11.672;2023-08-17T01:24:50;4.97;;;4.50;;
9481;SDS011;4779;48.062;11.672;2023-08-17T01:27:22;5.35;;;4.85;;
9481;SDS011;4779;48.062;11.672;2023-08-17T01:29:49;5.03;;;4.57;;
9481;SDS011;4779;48.062;11.672;2023-08-17T01:32:18;5.65;;;5.05;;
9481;SDS011;4779;48.062;11.672;2023-08-17T01:34:54;5.30;;;4.80;;
9481;SDS011;4779;48.062;11.672;2023-08-17T01:37:28;5.68;;;4.53;;
9481;SDS011;4779;48.062;11.672;2023-08-17T01:39:59;4.95;;;4.50;;
9481;SDS011;4779;48.062;11.672;2023-08-17T01:42:26;5.63;;;4.57;;
9481;SDS011;4779;48.062;11.672;2023-08-17T01:44:53;4.93;;;4.43;;
9481;SDS011;4779;48.062;11.672;2023-08-17T01:47:20;5.00;;;4.60;;
9481;SDS011;4779;48.062;11.672;2023-08-17T01:49:47;5.20;;;4.70;;
9481;SDS011;4779;48.062;11.672;2023-08-17T01:52:14;5.07;;;4.63;;
9481;SDS011;4779;48.062;11.672;2023-08-17T01:54:41;5.30;;;4.90;;
9481;SDS011;4779;48.062;11.672;2023-08-17T01:57:09;4.97;;;4.57;;
9481;SDS011;4779;48.062;11.672;2023-08-17T01:59:36;5.72;;;5.07;;
9481;SDS011;4779;48.062;11.672;2023-08-17T02:02:03;5.60;;;5.05;;
9481;SDS011;4779;48.062;11.672;2023-08-17T02:04:30;5.53;;;4.82;;
9481;SDS011;4779;48.062;11.672;2023-08-17T02:06:57;5.55;;;5.03;;
9481;SDS011;4779;48.062;11.672;2023-08-17T02:09:24;5.78;;;5.18;;
9481;SDS011;4779;48.062;11.672;2023-08-17T02:11:50;6.15;;;4.93;;
9481;SDS011;4779;48.062;11.672;2023-08-17T02:14:19;5.05;;;4.63;;
9481;SDS011;4779;48.062;11.672;2023-08-17T02:16:45;5.28;;;4.70;;
9481;SDS011;4779;48.062;11.672;2023-08-17T02:19:12;5.50;;;5.00;;
9481;SDS011;4779;48.062;11.672;2023-08-17T02:21:39;5.43;;;4.93;;
9481;SDS011;4779;48.062;11.672;2023-08-17T02:24:06;5.40;;;4.97;;
9481;SDS011;4779;48.062;11.672;2023-08-17T02:26:33;5.93;;;5.43;;
9481;SDS011;4779;48.062;11.672;2023-08-17T02:29:00;5.43;;;4.93;;
9481;SDS011;4779;48.062;11.672;2023-08-17T02:31:28;5.40;;;5.00;;
9481;SDS011;4779;48.062;11.672;2023-08-17T02:33:55;5.30;;;4.90;;
9481;SDS011;4779;48.062;11.672;2023-08-17T02:36:25;5.20;;;4.80;;
9481;SDS011;4779;48.062;11.672;2023-08-17T02:38:52;5.45;;;5.03;;
9481;SDS011;4779;48.062;11.672;2023-08-17T02:41:19;5.40;;;4.90;;
9481;SDS011;4779;48.062;11.672;2023-08-17T02:43:46;4.93;;;4.45;;
9481;SDS011;4779;48.062;11.672;2023-08-17T02:46:13;6.85;;;5.18;;
9481;SDS011;4779;48.062;11.672;2023-08-17T02:48:41;5.32;;;4.82;;
9481;SDS011;4779;48.062;11.672;2023-08-17T02:51:08;6.32;;;5.75;;
9481;SDS011;4779;48.062;11.672;2023-08-17T02:53:35;5.65;;;5.15;;
9481;SDS011;4779;48.062;11.672;2023-08-17T02:56:02;5.70;;;5.18;;
9481;SDS011;4779;48.062;11.672;2023-08-17T02:58:29;6.15;;;5.55;;
9481;SDS011;4779;48.062;11.672;2023-08-17T03:00:56;5.88;;;5.35;;
9481;SDS011;4779;48.062;11.672;2023-08-17T03:03:23;6.75;;;5.50;;
9481;SDS011;4779;48.062;11.672;2023-08-17T03:05:51;6.50;;;5.90;;
9481;SDS011;4779;48.062;11.672;2023-08-17T03:08:18;6.10;;;5.60;;
9481;SDS011;4779;48.062;11.672;2023-08-17T03:10:45;7.28;;;5.85;;
9481;SDS011;4779;48.062;11.672;2023-08-17T03:13:13;5.78;;;5.28;;
9481;SDS011;4779;48.062;11.672;2023-08-17T03:15:40;6.40;;;5.80;;
9481;SDS011;4779;48.062;11.672;2023-08-17T03:18:07;5.95;;;5.45;;
9481;SDS011;4779;48.062;11.672;2023-08-17T03:20:33;6.60;;;5.53;;
9481;SDS011;4779;48.062;11.672;2023-08-17T03:23:02;6.22;;;5.63;;
9481;SDS011;4779;48.062;11.672;2023-08-17T03:25:31;6.53;;;5.93;;
9481;SDS011;4779;48.062;11.672;2023-08-17T03:27:58;5.90;;;5.40;;
9481;SDS011;4779;48.062;11.672;2023-08-17T03:30:25;6.57;;;6.07;;
9481;SDS011;4779;48.062;11.672;2023-08-17T03:32:52;6.22;;;5.72;;
9481;SDS011;4779;48.062;11.672;2023-08-17T03:35:18;6.30;;;5.80;;
9481;SDS011;4779;48.062;11.672;2023-08-17T03:37:45;6.78;;;6.07;;
9481;SDS011;4779;48.062;11.672;2023-08-17T03:40:13;6.00;;;5.50;;
9481;SDS011;4779;48.062;11.672;2023-08-17T03:42:40;6.15;;;5.65;;
9481;SDS011;4779;48.062;11.672;2023-08-17T03:45:08;5.72;;;5.18;;
9481;SDS011;4779;48.062;11.672;2023-08-17T03:47:35;5.82;;;5.32;;
9481;SDS011;4779;48.062;11.672;2023-08-17T03:50:02;6.60;;;6.00;;
9481;SDS011;4779;48.062;11.672;2023-08-17T03:52:29;5.93;;;5.15;;
9481;SDS011;4779;48.062;11.672;2023-08-17T03:54:56;5.88;;;5.38;;
9481;SDS011;4779;48.062;11.672;2023-08-17T03:57:24;6.60;;;6.10;;
9481;SDS011;4779;48.062;11.672;2023-08-17T03:59:51;6.82;;;5.88;;
9481;SDS011;4779;48.062;11.672;2023-08-17T04:02:17;6.88;;;6.18;;
9481;SDS011;4779;48.062;11.672;2023-08-17T04:04:44;6.30;;;5.70;;
9481;SDS011;4779;48.062;11.672;2023-08-17T04:07:11;6.63;;;5.90;;
9481;SDS011;4779;48.062;11.672;2023-08-17T04:09:38;6.05;;;5.55;;
9481;SDS011;4779;48.062;11.672;2023-08-17T04:12:10;6.13;;;5.53;;
9481;SDS011;4779;48.062;11.672;2023-08-17T04:14:38;6.32;;;5.72;;
9481;SDS011;4779;48.062;11.672;2023-08-17T04:17:05;6.55;;;5.90;;
9481;SDS011;4779;48.062;11.672;2023-08-17T04:19:31;5.90;;;5.43;;
9481;SDS011;4779;48.062;11.672;2023-08-17T04:21:58;6.80;;;6.20;;
9481;SDS011;4779;48.062;11.672;2023-08-17T04:24:25;6.13;;;5.63;;
9481;SDS011;4779;48.062;11.672;2023-08-17T04:26:52;6.32;;;5.82;;
9481;SDS011;4779;48.062;11.672;2023-08-17T04:29:19;6.45;;;5.85;;
9481;SDS011;4779;48.062;11.672;2023-08-17T04:31:47;6.65;;;6.13;;
9481;SDS011;4779;48.062;11.672;2023-08-17T04:34:14;6.35;;;5.75;;
9481;SDS011;4779;48.062;11.672;2023-08-17T04:36:41;6.50;;;5.90;;
9481;SDS011;4779;48.062;11.672;2023-08-17T04:39:08;6.78;;;6.15;;
9481;SDS011;4779;48.062;11.672;2023-08-17T04:41:35;6.82;;;6.07;;
9481;SDS011;4779;48.062;11.672;2023-08-17T04:44:02;6.70;;;6.10;;
9481;SDS011;4779;48.062;11.672;2023-08-17T04:46:29;6.55;;;6.05;;
9481;SDS011;4779;48.062;11.672;2023-08-17T04:48:57;7.18;;;6.50;;
9481;SDS011;4779;48.062;11.672;2023-08-17T04:51:24;6.88;;;5.90;;
9481;SDS011;4779;48.062;11.672;2023-08-17T04:53:51;6.40;;;5.78;;
9481;SDS011;4779;48.062;11.672;2023-08-17T04:56:18;6.72;;;5.72;;
9481;SDS011;4779;48.062;11.672;2023-08-17T04:58:45;6.53;;;5.93;;
9481;SDS011;4779;48.062;11.672;2023-08-17T05:01:11;6.22;;;5.63;;
9481;SDS011;4779;48.062;11.672;2023-08-17T05:03:38;6.50;;;5.90;;
9481;SDS011;4779;48.062;11.672;2023-08-17T05:06:06;6.07;;;5.57;;
9481;SDS011;4779;48.062;11.672;2023-08-17T05:08:33;6.25;;;5.57;;
9481;SDS011;4779;48.062;11.672;2023-08-17T05:11:00;8.75;;;6.35;;
9481;SDS011;4779;48.062;11.672;2023-08-17T05:13:27;6.55;;;6.05;;
9481;SDS011;4779;48.062;11.672;2023-08-17T05:15:54;6.28;;;5.78;;
9481;SDS011;4779;48.062;11.672;2023-08-17T05:18:21;6.65;;;6.05;;
9481;SDS011;4779;48.062;11.672;2023-08-17T05:20:47;6.32;;;5.72;;
9481;SDS011;4779;48.062;11.672;2023-08-17T05:23:16;6.88;;;6.20;;
9481;SDS011;4779;48.062;11.672;2023-08-17T05:25:45;6.60;;;6.00;;
9481;SDS011;4779;48.062;11.672;2023-08-17T05:28:21;6.57;;;5.97;;
9481;SDS011;4779;48.062;11.672;2023-08-17T05:30:48;6.43;;;5.80;;
9481;SDS011;4779;48.062;11.672;2023-08-17T05:33:15;6.20;;;5.60;;
9481;SDS011;4779;48.062;11.672;2023-08-17T05:35:42;6.22;;;5.75;;
9481;SDS011;4779;48.062;11.672;2023-08-17T05:38:09;6.85;;;6.13;;
9481;SDS011;4779;48.062;11.672;2023-08-17T05:40:37;6.35;;;5.75;;
9481;SDS011;4779;48.062;11.672;2023-08-17T05:43:04;6.47;;;5.88;;
9481;SDS011;4779;48.062;11.672;2023-08-17T05:45:31;6.72;;;6.22;;
9481;SDS011;4779;48.062;11.672;2023-08-17T05:48:01;6.50;;;6.00;;
9481;SDS011;4779;48.062;11.672;2023-08-17T05:50:29;6.53;;;5.93;;
9481;SDS011;4779;48.062;11.672;2023-08-17T05:52:55;6.13;;;5.63;;
9481;SDS011;4779;48.062;11.672;2023-08-17T05:55:22;6.70;;;6.10;;
9481;SDS011;4779;48.062;11.672;2023-08-17T05:57:51;5.68;;;5.18;;
9481;SDS011;4779;48.062;11.672;2023-08-17T06:00:18;6.32;;;5.70;;
9481;SDS011;4779;48.062;11.672;2023-08-17T06:02:45;6.13;;;5.63;;
9481;SDS011;4779;48.062;11.672;2023-08-17T06:05:15;6.68;;;5.95;;
9481;SDS011;4779;48.062;11.672;2023-08-17T06:07:42;6.93;;;5.65;;
9481;SDS011;4779;48.062;11.672;2023-08-17T06:10:09;6.35;;;5.75;;
9481;SDS011;4779;48.062;11.672;2023-08-17T06:12:36;6.30;;;5.70;;
9481;SDS011;4779;48.062;11.672;2023-08-17T06:15:05;6.03;;;5.53;;
9481;SDS011;4779;48.062;11.672;2023-08-17T06:17:32;6.00;;;5.32;;
9481;SDS011;4779;48.062;11.672;2023-08-17T06:19:59;5.75;;;5.28;;
9481;SDS011;4779;48.062;11.672;2023-08-17T06:22:28;5.32;;;4.93;;
9481;SDS011;4779;48.062;11.672;2023-08-17T06:24:55;5.78;;;5.38;;
9481;SDS011;4779;48.062;11.672;2023-08-17T06:27:22;5.25;;;4.82;;
9481;SDS011;4779;48.062;11.672;2023-08-17T06:29:49;5.30;;;4.80;;
9481;SDS011;4779;48.062;11.672;2023-08-17T06:32:17;5.65;;;5.10;;
9481;SDS011;4779;48.062;11.672;2023-08-17T06:34:44;5.57;;;5.10;;
9481;SDS011;4779;48.062;11.672;2023-08-17T06:37:11;5.75;;;5.13;;
9481;SDS011;4779;48.062;11.672;2023-08-17T06:39:38;5.22;;;4.72;;
9481;SDS011;4779;48.062;11.672;2023-08-17T06:42:05;5.40;;;4.90;;
9481;SDS011;4779;48.062;11.672;2023-08-17T06:44:32;5.55;;;5.05;;
9481;SDS011;4779;48.062;11.672;2023-08-17T06:46:59;4.72;;;4.32;;
9481;SDS011;4779;48.062;11.672;2023-08-17T06:49:27;5.72;;;4.95;;
9481;SDS011;4779;48.062;11.672;2023-08-17T06:51:54;4.53;;;4.22;;
9481;SDS011;4779;48.062;11.672;2023-08-17T06:54:21;5.38;;;4.90;;
9481;SDS011;4779;48.062;11.672;2023-08-17T06:56:47;5.13;;;4.63;;
9481;SDS011;4779;48.062;11.672;2023-08-17T06:59:14;5.03;;;4.72;;
9481;SDS011;4779;48.062;11.672;2023-08-17T07:01:41;5.25;;;4.78;;
9481;SDS011;4779;48.062;11.672;2023-08-17T07:04:08;5.18;;;4.78;;
9481;SDS011;4779;48.062;11.672;2023-08-17T07:06:37;5.47;;;5.07;;
9481;SDS011;4779;48.062;11.672;2023-08-17T07:09:03;6.93;;;5.03;;
9481;SDS011;4779;48.062;11.672;2023-08-17T07:11:31;7.07;;;4.93;;
9481;SDS011;4779;48.062;11.672;2023-08-17T07:13:57;5.15;;;4.75;;
9481;SDS011;4779;48.062;11.672;2023-08-17T07:16:24;8.30;;;5.93;;
9481;SDS011;4779;48.062;11.672;2023-08-17T07:18:51;4.93;;;4.55;;
9481;SDS011;4779;48.062;11.672;2023-08-17T07:21:18;6.93;;;6.15;;
9481;SDS011;4779;48.062;11.672;2023-08-17T07:23:46;5.63;;;5.13;;
9481;SDS011;4779;48.062;11.672;2023-08-17T07:26:13;6.43;;;5.15;;
9481;SDS011;4779;48.062;11.672;2023-08-17T07:28:40;6.43;;;4.97;;
9481;SDS011;4779;48.062;11.672;2023-08-17T07:31:07;5.60;;;5.10;;
9481;SDS011;4779;48.062;11.672;2023-08-17T07:33:35;5.57;;;5.03;;
9481;SDS011;4779;48.062;11.672;2023-08-17T07:36:05;5.70;;;5.20;;
9481;SDS011;4779;48.062;11.672;2023-08-17T07:38:32;7.80;;;5.18;;
9481;SDS011;4779;48.062;11.672;2023-08-17T07:41:01;5.43;;;4.93;;
9481;SDS011;4779;48.062;11.672;2023-08-17T07:43:28;5.47;;;5.07;;
9481;SDS011;4779;48.062;11.672;2023-08-17T07:45:56;5.90;;;5.20;;
9481;SDS011;4779;48.062;11.672;2023-08-17T07:48:23;5.50;;;5.00;;
9481;SDS011;4779;48.062;11.672;2023-08-17T07:50:50;5.30;;;4.80;;
9481;SDS011;4779;48.062;11.672;2023-08-17T07:53:17;5.65;;;5.05;;
9481;SDS011;4779;48.062;11.672;2023-08-17T07:55:44;5.53;;;5.03;;
9481;SDS011;4779;48.062;11.672;2023-08-17T07:58:12;5.07;;;4.38;;
9481;SDS011;4779;48.062;11.672;2023-08-17T08:00:39;4.70;;;4.30;;
9481;SDS011;4779;48.062;11.672;2023-08-17T08:03:06;7.15;;;4.50;;
9481;SDS011;4779;48.062;11.672;2023-08-17T08:05:34;4.28;;;3.88;;
9481;SDS011;4779;48.062;11.672;2023-08-17T08:08:01;6.38;;;4.60;;
9481;SDS011;4779;48.062;11.672;2023-08-17T08:10:27;4.70;;;4.30;;
9481;SDS011;4779;48.062;11.672;2023-08-17T08:12:54;4.82;;;4.43;;
9481;SDS011;4779;48.062;11.672;2023-08-17T08:15:23;4.60;;;4.20;;
9481;SDS011;4779;48.062;11.672;2023-08-17T08:17:52;4.25;;;3.95;;
9481;SDS011;4779;48.062;11.672;2023-08-17T08:20:20;4.10;;;3.80;;
9481;SDS011;4779;48.062;11.672;2023-08-17T08:22:47;4.15;;;3.85;;
9481;SDS011;4779;48.062;11.672;2023-08-17T08:25:14;4.00;;;3.60;;
9481;SDS011;4779;48.062;11.672;2023-08-17T08:27:41;4.22;;;3.80;;
9481;SDS011;4779;48.062;11.672;2023-08-17T08:30:08;5.85;;;4.55;;
9481;SDS011;4779;48.062;11.672;2023-08-17T08:32:36;4.55;;;4.20;;
9481;SDS011;4779;48.062;11.672;2023-08-17T08:35:03;4.50;;;4.10;;
9481;SDS011;4779;48.062;11.672;2023-08-17T08:37:31;4.30;;;4.00;;
9481;SDS011;4779;48.062;11.672;2023-08-17T08:39:58;4.28;;;3.90;;
9481;SDS011;4779;48.062;11.672;2023-08-17T08:42:24;4.13;;;3.72;;
9481;SDS011;4779;48.062;11.672;2023-08-17T08:44:51;4.22;;;3.88;;
9481;SDS011;4779;48.062;11.672;2023-08-17T08:47:19;4.65;;;4.25;;
9481;SDS011;4779;48.062;11.672;2023-08-17T08:49:56;3.58;;;3.38;;
9481;SDS011;4779;48.062;11.672;2023-08-17T08:52:28;4.82;;;4.00;;
9481;SDS011;4779;48.062;11.672;2023-08-17T08:55:01;3.85;;;3.60;;
9481;SDS011;4779;48.062;11.672;2023-08-17T08:57:35;6.05;;;4.13;;
9481;SDS011;4779;48.062;11.672;2023-08-17T09:00:03;4.78;;;4.15;;
9481;SDS011;4779;48.062;11.672;2023-08-17T09:02:32;4.50;;;4.10;;
9481;SDS011;4779;48.062;11.672;2023-08-17T09:05:01;4.25;;;3.95;;
9481;SDS011;4779;48.062;11.672;2023-08-17T09:07:29;4.20;;;3.80;;
9481;SDS011;4779;48.062;11.672;2023-08-17T09:09:56;4.28;;;3.88;;
9481;SDS011;4779;48.062;11.672;2023-08-17T09:12:24;4.15;;;3.75;;
9481;SDS011;4779;48.062;11.672;2023-08-17T09:14:51;4.90;;;3.90;;
9481;SDS011;4779;48.062;11.672;2023-08-17T09:17:22;4.50;;;4.10;;
9481;SDS011;4779;48.062;11.672;2023-08-17T09:19:49;3.78;;;3.42;;
9481;SDS011;4779;48.062;11.672;2023-08-17T09:22:22;3.80;;;3.50;;
9481;SDS011;4779;48.062;11.672;2023-08-17T09:24:50;3.95;;;3.60;;
9481;SDS011;4779;48.062;11.672;2023-08-17T09:27:17;3.78;;;3.40;;
9481;SDS011;4779;48.062;11.672;2023-08-17T09:29:44;4.53;;;3.33;;
9481;SDS011;4779;48.062;11.672;2023-08-17T09:32:14;4.00;;;3.70;;
9481;SDS011;4779;48.062;11.672;2023-08-17T09:34:41;3.85;;;3.53;;
9481;SDS011;4779;48.062;11.672;2023-08-17T09:37:08;3.30;;;3.10;;
9481;SDS011;4779;48.062;11.672;2023-08-17T09:39:39;3.88;;;3.67;;
9481;SDS011;4779;48.062;11.672;2023-08-17T09:42:06;4.03;;;3.72;;
9481;SDS011;4779;48.062;11.672;2023-08-17T09:44:33;4.30;;;3.35;;
9481;SDS011;4779;48.062;11.672;2023-08-17T09:47:01;3.90;;;3.60;;
9481;SDS011;4779;48.062;11.672;2023-08-17T09:49:30;3.40;;;3.10;;
9481;SDS011;4779;48.062;11.672;2023-08-17T09:51:59;3.80;;;3.58;;
9481;SDS011;4779;48.062;11.672;2023-08-17T09:54:27;3.70;;;3.30;;
9481;SDS011;4779;48.062;11.672;2023-08-17T09:56:58;4.13;;;3.25;;
9481;SDS011;4779;48.062;11.672;2023-08-17T09:59:25;3.70;;;3.40;;
9481;SDS011;4779;48.062;11.672;2023-08-17T10:01:52;4.55;;;3.08;;
9481;SDS011;4779;48.062;11.672;2023-08-17T10:04:20;3.45;;;3.15;;
9481;SDS011;4779;48.062;11.672;2023-08-17T10:06:50;3.60;;;3.30;;
9481;SDS011;4779;48.062;11.672;2023-08-17T10:09:22;3.28;;;3.08;;
9481;SDS011;4779;48.062;11.672;2023-08-17T10:11:51;3.53;;;3.22;;
9481;SDS011;4779;48.062;11.672;2023-08-17T10:14:26;3.83;;;3.45;;
9481;SDS011;4779;48.062;11.672;2023-08-17T10:17:01;3.97;;;3.65;;
9481;SDS011;4779;48.062;11.672;2023-08-17T10:19:33;3.60;;;3.30;;
9481;SDS011;4779;48.062;11.672;2023-08-17T10:22:09;3.72;;;3.10;;
9481;SDS011;4779;48.062;11.672;2023-08-17T10:24:42;3.55;;;3.25;;
9481;SDS011;4779;48.062;11.672;2023-08-17T10:27:16;3.42;;;3.17;;
9481;SDS011;4779;48.062;11.672;2023-08-17T10:29:46;3.72;;;3.42;;
9481;SDS011;4779;48.062;11.672;2023-08-17T10:32:14;3.33;;;3.03;;
9481;SDS011;4779;48.062;11.672;2023-08-17T10:34:42;3.70;;;3.40;;
9481;SDS011;4779;48.062;11.672;2023-08-17T10:37:11;3.78;;;3.45;;
9481;SDS011;4779;48.062;11.672;2023-08-17T10:39:44;3.38;;;3.08;;
9481;SDS011;4779;48.062;11.672;2023-08-17T10:42:12;3.35;;;2.80;;
9481;SDS011;4779;48.062;11.672;2023-08-17T10:44:40;3.25;;;2.95;;
9481;SDS011;4779;48.062;11.672;2023-08-17T10:47:22;4.65;;;3.50;;
9481;SDS011;4779;48.062;11.672;2023-08-17T10:49:50;3.60;;;3.30;;
9481;SDS011;4779;48.062;11.672;2023-08-17T10:52:28;3.00;;;2.80;;
9481;SDS011;4779;48.062;11.672;2023-08-17T10:54:58;4.03;;;2.88;;
9481;SDS011;4779;48.062;11.672;2023-08-17T10:57:30;3.50;;;3.30;;
9481;SDS011;4779;48.062;11.672;2023-08-17T11:02:53;3.33;;;3.00;;
9481;SDS011;4779;48.062;11.672;2023-08-17T11:05:37;3.50;;;3.20;;
9481;SDS011;4779;48.062;11.672;2023-08-17T11:08:04;3.75;;;3.45;;
9481;SDS011;4779;48.062;11.672;2023-08-17T11:10:32;3.70;;;3.40;;
9481;SDS011;4779;48.062;11.672;2023-08-17T11:12:59;3.72;;;3.30;;
9481;SDS011;4779;48.062;11.672;2023-08-17T11:15:35;3.45;;;3.15;;
9481;SDS011;4779;48.062;11.672;2023-08-17T11:18:09;3.78;;;3.35;;
9481;SDS011;4779;48.062;11.672;2023-08-17T11:20:37;3.60;;;3.30;;
9481;SDS011;4779;48.062;11.672;2023-08-17T11:23:06;3.42;;;3.13;;
9481;SDS011;4779;48.062;11.672;2023-08-17T11:25:35;4.05;;;3.55;;
9481;SDS011;4779;48.062;11.672;2023-08-17T11:28:03;3.65;;;3.30;;
9481;SDS011;4779;48.062;11.672;2023-08-17T11:30:33;3.85;;;3.55;;
9481;SDS011;4779;48.062;11.672;2023-08-17T11:33:02;3.90;;;3.60;;
9481;SDS011;4779;48.062;11.672;2023-08-17T11:35:31;4.07;;;3.75;;
9481;SDS011;4779;48.062;11.672;2023-08-17T11:37:57;3.80;;;3.60;;
9481;SDS011;4779;48.062;11.672;2023-08-17T11:40:24;4.22;;;3.55;;
9481;SDS011;4779;48.062;11.672;2023-08-17T11:42:52;4.80;;;3.72;;
9481;SDS011;4779;48.062;11.672;2023-08-17T11:45:19;3.80;;;3.50;;
9481;SDS011;4779;48.062;11.672;2023-08-17T11:47:46;4.43;;;4.10;;
9481;SDS011;4779;48.062;11.672;2023-08-17T11:50:13;4.00;;;3.70;;
9481;SDS011;4779;48.062;11.672;2023-08-17T11:52:42;4.20;;;3.90;;
9481;SDS011;4779;48.062;11.672;2023-08-17T11:55:09;5.65;;;4.22;;
9481;SDS011;4779;48.062;11.672;2023-08-17T11:57:36;5.00;;;4.00;;
9481;SDS011;4779;48.062;11.672;2023-08-17T12:00:04;3.88;;;3.58;;
9481;SDS011;4779;48.062;11.672;2023-08-17T12:02:32;4.00;;;3.70;;
9481;SDS011;4779;48.062;11.672;2023-08-17T12:05:02;5.10;;;4.28;;
9481;SDS011;4779;48.062;11.672;2023-08-17T12:07:31;5.32;;;4.82;;
9481;SDS011;4779;48.062;11.672;2023-08-17T12:10:01;5.55;;;5.05;;
9481;SDS011;4779;48.062;11.672;2023-08-17T12:12:29;5.00;;;4.70;;
9481;SDS011;4779;48.062;11.672;2023-08-17T12:14:57;5.47;;;4.97;;
9481;SDS011;4779;48.062;11.672;2023-08-17T12:17:24;6.32;;;5.78;;
9481;SDS011;4779;48.062;11.672;2023-08-17T12:19:53;5.78;;;5.38;;
9481;SDS011;4779;48.062;11.672;2023-08-17T12:22:23;5.25;;;4.85;;
9481;SDS011;4779;48.062;11.672;2023-08-17T12:24:51;5.20;;;4.80;;
9481;SDS011;4779;48.062;11.672;2023-08-17T12:27:22;5.57;;;4.90;;
9481;SDS011;4779;48.062;11.672;2023-08-17T12:29:50;5.10;;;4.70;;
9481;SDS011;4779;48.062;11.672;2023-08-17T12:32:18;5.10;;;4.70;;
9481;SDS011;4779;48.062;11.672;2023-08-17T12:34:46;5.15;;;4.70;;
9481;SDS011;4779;48.062;11.672;2023-08-17T12:37:17;5.18;;;4.78;;
9481;SDS011;4779;48.062;11.672;2023-08-17T12:39:45;5.30;;;4.90;;
9481;SDS011;4779;48.062;11.672;2023-08-17T12:42:12;5.47;;;4.85;;
9481;SDS011;4779;48.062;11.672;2023-08-17T12:44:40;5.40;;;4.90;;
9481;SDS011;4779;48.062;11.672;2023-08-17T12:47:07;5.50;;;5.10;;
9481;SDS011;4779;48.062;11.672;2023-08-17T12:49:35;5.38;;;4.97;;
9481;SDS011;4779;48.062;11.672;2023-08-17T12:52:02;7.72;;;4.65;;
9481;SDS011;4779;48.062;11.672;2023-08-17T12:54:29;5.15;;;4.75;;
9481;SDS011;4779;48.062;11.672;2023-08-17T12:56:56;5.47;;;4.60;;
9481;SDS011;4779;48.062;11.672;2023-08-17T12:59:23;6.80;;;4.90;;
9481;SDS011;4779;48.062;11.672;2023-08-17T13:01:52;6.03;;;4.70;;
9481;SDS011;4779;48.062;11.672;2023-08-17T13:04:19;5.30;;;4.90;;
9481;SDS011;4779;48.062;11.672;2023-08-17T13:06:46;6.07;;;4.60;;
9481;SDS011;4779;48.062;11.672;2023-08-17T13:09:13;5.10;;;4.60;;
9481;SDS011;4779;48.062;11.672;2023-08-17T13:11:41;4.93;;;4.50;;
9481;SDS011;4779;48.062;11.672;2023-08-17T13:14:08;4.90;;;4.60;;
9481;SDS011;4779;48.062;11.672;2023-08-17T13:16:34;4.78;;;4.38;;
9481;SDS011;4779;48.062;11.672;2023-08-17T13:19:03;4.93;;;4.53;;
9481;SDS011;4779;48.062;11.672;2023-08-17T13:21:30;4.43;;;4.10;;
9481;SDS011;4779;48.062;11.672;2023-08-17T13:23:57;4.13;;;3.85;;
9481;SDS011;4779;48.062;11.672;2023-08-17T13:26:23;4.70;;;4.30;;
9481;SDS011;4779;48.062;11.672;2023-08-17T13:28:50;4.32;;;3.92;;
9481;SDS011;4779;48.062;11.672;2023-08-17T13:31:17;5.65;;;4.50;;
9481;SDS011;4779;48.062;11.672;2023-08-17T13:33:44;4.90;;;4.50;;
9481;SDS011;4779;48.062;11.672;2023-08-17T13:36:12;5.10;;;4.68;;
9481;SDS011;4779;48.062;11.672;2023-08-17T13:38:39;4.68;;;4.28;;
9481;SDS011;4779;48.062;11.672;2023-08-17T13:41:06;4.95;;;4.55;;
9481;SDS011;4779;48.062;11.672;2023-08-17T13:43:33;5.03;;;4.47;;
9481;SDS011;4779;48.062;11.672;2023-08-17T13:46:00;4.85;;;4.43;;
9481;SDS011;4779;48.062;11.672;2023-08-17T13:48:27;5.20;;;4.53;;
9481;SDS011;4779;48.062;11.672;2023-08-17T13:50:54;4.57;;;4.28;;
9481;SDS011;4779;48.062;11.672;2023-08-17T13:53:22;5.05;;;4.57;;
9481;SDS011;4779;48.062;11.672;2023-08-17T13:55:49;5.63;;;4.60;;
9481;SDS011;4779;48.062;11.672;2023-08-17T13:58:16;5.20;;;4.80;;
9481;SDS011;4779;48.062;11.672;2023-08-17T14:00:43;5.30;;;4.72;;
9481;SDS011;4779;48.062;11.672;2023-08-17T14:03:10;5.32;;;4.70;;
9481;SDS011;4779;48.062;11.672;2023-08-17T14:05:37;5.00;;;4.50;;
9481;SDS011;4779;48.062;11.672;2023-08-17T14:08:04;5.10;;;4.63;;
9481;SDS011;4779;48.062;11.672;2023-08-17T14:10:33;5.22;;;4.75;;
9481;SDS011;4779;48.062;11.672;2023-08-17T14:13:01;5.82;;;4.53;;
9481;SDS011;4779;48.062;11.672;2023-08-17T14:15:28;5.20;;;4.80;;
9481;SDS011;4779;48.062;11.672;2023-08-17T14:17:55;5.05;;;4.65;;
9481;SDS011;4779;48.062;11.672;2023-08-17T14:20:22;5.45;;;5.00;;
9481;SDS011;4779;48.062;11.672;2023-08-17T14:22:48;4.60;;;4.30;;
9481;SDS011;4779;48.062;11.672;2023-08-17T14:25:15;5.25;;;4.85;;
9481;SDS011;4779;48.062;11.672;2023-08-17T14:27:44;5.30;;;4.80;;
9481;SDS011;4779;48.062;11.672;2023-08-17T14:30:11;5.28;;;4.60;;
9481;SDS011;4779;48.062;11.672;2023-08-17T14:32:38;5.75;;;5.07;;
9481;SDS011;4779;48.062;11.672;2023-08-17T14:35:05;5.63;;;5.13;;
9481;SDS011;4779;48.062;11.672;2023-08-17T14:37:33;5.25;;;4.78;;
9481;SDS011;4779;48.062;11.672;2023-08-17T14:40:00;6.28;;;4.78;;
9481;SDS011;4779;48.062;11.672;2023-08-17T14:42:28;4.85;;;4.45;;
9481;SDS011;4779;48.062;11.672;2023-08-17T14:44:56;5.30;;;4.90;;
9481;SDS011;4779;48.062;11.672;2023-08-17T14:47:23;5.47;;;4.75;;
9481;SDS011;4779;48.062;11.672;2023-08-17T14:49:50;5.40;;;5.00;;
9481;SDS011;4779;48.062;11.672;2023-08-17T14:52:18;5.20;;;4.70;;
9481;SDS011;4779;48.062;11.672;2023-08-17T14:54:45;5.07;;;4.57;;
9481;SDS011;4779;48.062;11.672;2023-08-17T14:57:12;5.20;;;4.80;;
9481;SDS011;4779;48.062;11.672;2023-08-17T14:59:39;4.93;;;4.57;;
9481;SDS011;4779;48.062;11.672;2023-08-17T15:02:07;4.22;;;3.92;;
9481;SDS011;4779;48.062;11.672;2023-08-17T15:04:35;4.68;;;4.30;;
9481;SDS011;4779;48.062;11.672;2023-08-17T15:07:03;4.47;;;4.18;;